createdAt,value
2023-05-09T00:02:02.445Z,7.33
2023-05-09T00:04:39.514Z,7.32
2023-05-09T00:07:17.049Z,7.25
2023-05-09T00:09:54.007Z,7.21
2023-05-09T00:12:31.318Z,7.17
2023-05-09T00:15:10.049Z,7.10
2023-05-09T00:17:41.439Z,7.03
2023-05-09T00:20:13.140Z,6.97
2023-05-09T00:22:49.911Z,6.96
2023-05-09T00:25:20.119Z,6.96
2023-05-09T00:27:57.900Z,6.97
2023-05-09T00:30:35.063Z,6.95
2023-05-09T00:33:12.607Z,6.94
2023-05-09T00:35:49.108Z,6.91
2023-05-09T00:38:24.279Z,6.87
2023-05-09T00:40:56.702Z,6.81
2023-05-09T00:43:32.054Z,6.77
2023-05-09T00:46:10.086Z,6.73
2023-05-09T00:48:46.806Z,6.67
2023-05-09T00:51:24.008Z,6.65
2023-05-09T00:54:01.485Z,6.52
2023-05-09T00:56:38.631Z,6.55
2023-05-09T00:59:19.357Z,6.56
2023-05-09T01:01:56.583Z,6.51
2023-05-09T01:04:33.545Z,6.59
2023-05-09T01:07:40.883Z,6.59
2023-05-09T01:10:31.779Z,6.56
2023-05-09T01:13:26.682Z,6.55
2023-05-09T01:16:13.202Z,6.54
2023-05-09T01:19:04.698Z,6.49
2023-05-09T01:21:38.439Z,6.38
2023-05-09T01:25:03.327Z,6.34
2023-05-09T01:28:18.384Z,6.29
2023-05-09T01:30:53.388Z,6.28
2023-05-09T01:33:29.341Z,6.27
2023-05-09T01:36:13.753Z,6.26
2023-05-09T01:38:50.932Z,6.27
2023-05-09T01:41:32.696Z,6.31
2023-05-09T01:44:12.230Z,6.31
2023-05-09T01:46:49.579Z,6.31
2023-05-09T01:49:27.843Z,6.33
2023-05-09T01:52:14.294Z,6.30
2023-05-09T01:54:51.923Z,6.23
2023-05-09T01:57:29.259Z,6.16
2023-05-09T02:00:08.410Z,6.08
2023-05-09T02:02:46.221Z,6.04
2023-05-09T02:05:25.926Z,6.01
2023-05-09T02:08:03.588Z,6.02
2023-05-09T02:10:41.802Z,6.02
2023-05-09T02:13:19.831Z,6.04
2023-05-09T02:15:52.229Z,6.05
2023-05-09T02:18:23.744Z,6.03
2023-05-09T02:21:01.612Z,6.04
2023-05-09T02:23:32.252Z,6.01
2023-05-09T02:26:12.151Z,5.96
2023-05-09T02:28:46.766Z,5.95
2023-05-09T02:31:29.065Z,5.91
2023-05-09T02:34:10.189Z,5.90
2023-05-09T02:36:48.124Z,5.87
2023-05-09T02:39:26.024Z,5.97
2023-05-09T02:42:11.843Z,5.99
2023-05-09T02:44:45.895Z,6.01
2023-05-09T02:47:19.176Z,5.99
2023-05-09T02:49:57.403Z,5.94
2023-05-09T02:52:34.252Z,5.87
2023-05-09T02:55:12.544Z,5.80
2023-05-09T02:57:56.246Z,5.78
2023-05-09T03:00:42.581Z,5.76
2023-05-09T03:03:19.497Z,5.79
2023-05-09T03:05:56.740Z,5.83
2023-05-09T03:08:34.256Z,5.83
2023-05-09T03:11:11.785Z,5.87
2023-05-09T03:13:49.265Z,5.86
2023-05-09T03:16:27.151Z,5.83
2023-05-09T03:19:04.637Z,5.85
2023-05-09T03:21:35.776Z,5.83
2023-05-09T03:24:11.886Z,5.81
2023-05-09T03:26:49.480Z,5.81
2023-05-09T03:29:27.290Z,5.79
2023-05-09T03:32:05.876Z,5.79
2023-05-09T03:34:43.538Z,5.79
2023-05-09T03:37:20.796Z,5.75
2023-05-09T03:39:57.908Z,5.86
2023-05-09T03:42:35.749Z,5.92
2023-05-09T03:45:06.756Z,5.96
2023-05-09T03:47:43.838Z,6.01
2023-05-09T03:50:14.350Z,6.05
2023-05-09T03:52:51.795Z,6.02
2023-05-09T03:55:28.918Z,5.97
2023-05-09T03:58:07.188Z,6.11
2023-05-09T04:00:44.908Z,6.10
2023-05-09T04:03:22.603Z,6.01
2023-05-09T04:06:00.157Z,6.01
2023-05-09T04:08:38.419Z,6.07
2023-05-09T04:11:15.997Z,6.19
2023-05-09T04:13:54.353Z,6.28
2023-05-09T04:16:31.841Z,6.37
2023-05-09T04:19:09.611Z,6.43
2023-05-09T04:21:46.287Z,6.49
2023-05-09T04:24:19.381Z,6.54
2023-05-09T04:26:53.484Z,6.51
2023-05-09T04:29:30.889Z,6.46
2023-05-09T04:32:10.304Z,6.56
2023-05-09T04:34:47.613Z,6.70
2023-05-09T04:37:24.990Z,6.85
2023-05-09T04:40:07.168Z,6.96
2023-05-09T04:42:44.397Z,7.08
2023-05-09T04:45:22.272Z,7.13
2023-05-09T04:48:00.113Z,7.00
2023-05-09T04:50:37.637Z,7.09
2023-05-09T04:53:08.620Z,7.15
2023-05-09T04:55:46.238Z,7.26
2023-05-09T04:58:16.611Z,7.38
2023-05-09T05:00:54.008Z,7.63
2023-05-09T05:03:29.800Z,8.06
2023-05-09T05:06:13.607Z,8.43
2023-05-09T05:08:54.784Z,8.77
2023-05-09T05:11:35.054Z,9.37
2023-05-09T05:14:17.055Z,10.22
2023-05-09T05:16:55.590Z,11.19
2023-05-09T05:19:35.700Z,11.97
2023-05-09T05:22:08.343Z,12.82
2023-05-09T05:24:53.436Z,13.41
2023-05-09T05:27:35.813Z,13.95
2023-05-09T05:30:16.926Z,14.68
2023-05-09T05:32:56.165Z,15.53
2023-05-09T05:35:36.107Z,16.96
2023-05-09T05:38:13.456Z,17.59
2023-05-09T05:40:51.192Z,17.86
2023-05-09T05:43:29.407Z,18.54
2023-05-09T05:46:07.437Z,18.44
2023-05-09T05:48:38.419Z,18.70
2023-05-09T05:51:16.779Z,18.97
2023-05-09T05:53:50.338Z,18.91
2023-05-09T05:56:28.242Z,19.00
2023-05-09T05:58:58.472Z,19.45
2023-05-09T06:01:35.777Z,19.63
2023-05-09T06:04:09.068Z,19.86
2023-05-09T06:06:47.117Z,20.00
2023-05-09T06:09:24.913Z,19.97
2023-05-09T06:12:03.304Z,19.99
2023-05-09T06:14:41.876Z,20.37
2023-05-09T06:17:19.991Z,20.71
2023-05-09T06:19:58.134Z,20.93
2023-05-09T06:22:36.315Z,21.50
2023-05-09T06:25:15.354Z,21.87
2023-05-09T06:27:53.240Z,21.29
2023-05-09T06:30:31.605Z,20.25
2023-05-09T06:33:10.252Z,20.15
2023-05-09T06:35:44.701Z,20.06
2023-05-09T06:38:17.772Z,19.89
2023-05-09T06:40:56.210Z,20.26
2023-05-09T06:43:35.036Z,19.76
2023-05-09T06:46:13.927Z,19.28
2023-05-09T06:48:51.832Z,18.91
2023-05-09T06:51:25.584Z,19.68
2023-05-09T06:54:03.866Z,20.16
2023-05-09T06:56:41.818Z,20.55
2023-05-09T06:59:20.971Z,21.07
2023-05-09T07:01:59.674Z,21.55
2023-05-09T07:04:38.391Z,21.50
2023-05-09T07:07:10.077Z,21.88
2023-05-09T07:09:40.541Z,21.97
2023-05-09T07:12:18.680Z,21.19
2023-05-09T07:14:57.717Z,21.51
2023-05-09T07:17:37.383Z,21.48
2023-05-09T07:20:15.998Z,21.73
2023-05-09T07:22:54.657Z,21.75
2023-05-09T07:25:28.422Z,21.37
2023-05-09T07:28:06.968Z,21.20
2023-05-09T07:30:51.787Z,21.38
2023-05-09T07:33:23.382Z,21.65
2023-05-09T07:36:03.148Z,21.95
2023-05-09T07:38:42.846Z,22.06
2023-05-09T07:41:14.256Z,21.99
2023-05-09T07:43:51.267Z,22.19
2023-05-09T07:46:23.265Z,21.79
2023-05-09T07:49:00.041Z,21.84
2023-05-09T07:51:38.650Z,22.03
2023-05-09T07:54:17.101Z,22.00
2023-05-09T07:56:56.855Z,22.30
2023-05-09T07:59:35.543Z,22.49
2023-05-09T08:02:14.862Z,22.25
2023-05-09T08:04:51.289Z,21.92
2023-05-09T08:07:30.760Z,21.33
2023-05-09T08:10:10.152Z,21.49
2023-05-09T08:12:48.517Z,21.34
2023-05-09T08:15:27.910Z,21.61
2023-05-09T08:18:07.222Z,21.76
2023-05-09T08:20:45.963Z,21.90
2023-05-09T08:23:25.746Z,21.79
2023-05-09T08:26:05.778Z,21.79
2023-05-09T08:28:45.798Z,22.12
2023-05-09T08:31:24.774Z,22.54
2023-05-09T08:34:04.441Z,22.49
2023-05-09T08:36:46.038Z,21.91
2023-05-09T08:39:26.412Z,21.54
2023-05-09T08:42:09.014Z,21.47
2023-05-09T08:44:47.014Z,21.50
2023-05-09T08:47:26.977Z,21.62
2023-05-09T08:49:58.778Z,21.83
2023-05-09T08:52:41.236Z,22.10
2023-05-09T08:55:20.353Z,22.07
2023-05-09T08:57:59.626Z,21.52
2023-05-09T09:00:41.603Z,21.05
2023-05-09T09:03:12.710Z,20.81
2023-05-09T09:05:45.206Z,20.26
2023-05-09T09:08:23.192Z,19.81
2023-05-09T09:11:02.105Z,20.20
2023-05-09T09:13:44.140Z,20.29
2023-05-09T09:16:23.243Z,20.41
2023-05-09T09:19:02.472Z,20.48
2023-05-09T09:21:44.110Z,21.13
2023-05-09T09:24:24.193Z,21.18
2023-05-09T09:27:06.595Z,21.22
2023-05-09T09:29:42.753Z,21.38
2023-05-09T09:32:23.204Z,21.23
2023-05-09T09:35:09.462Z,21.15
2023-05-09T09:37:43.842Z,21.37
2023-05-09T09:40:24.068Z,21.25
2023-05-09T09:43:03.239Z,21.15
2023-05-09T09:45:43.253Z,21.36
2023-05-09T09:48:23.876Z,21.44
2023-05-09T09:51:13.889Z,20.96
2023-05-09T09:53:45.213Z,20.83
2023-05-09T09:56:23.644Z,20.98
2023-05-09T09:59:16.795Z,21.06
2023-05-09T10:02:08.437Z,20.86
2023-05-09T10:04:48.163Z,20.85
2023-05-09T10:07:26.889Z,20.39
2023-05-09T10:10:06.458Z,20.31
2023-05-09T10:12:48.312Z,20.36
2023-05-09T10:15:35.652Z,20.56
2023-05-09T10:18:25.726Z,20.03
2023-05-09T10:21:04.451Z,19.79
2023-05-09T10:23:49.211Z,19.89
2023-05-09T10:26:31.754Z,20.07
2023-05-09T10:29:12.747Z,20.20
2023-05-09T10:31:44.887Z,20.32
2023-05-09T10:34:29.051Z,20.22
2023-05-09T10:37:05.358Z,20.31
2023-05-09T10:39:38.285Z,20.60
2023-05-09T10:42:16.676Z,20.71
2023-05-09T10:44:55.885Z,20.66
2023-05-09T10:47:35.845Z,20.60
2023-05-09T10:50:19.221Z,20.60
2023-05-09T10:53:22.150Z,20.16
2023-05-09T10:56:04.547Z,20.16
2023-05-09T10:58:44.269Z,20.05
2023-05-09T11:01:37.905Z,19.72
2023-05-09T11:04:13.433Z,19.77
2023-05-09T11:06:58.925Z,19.63
2023-05-09T11:09:42.134Z,19.51
2023-05-09T11:12:27.497Z,19.35
2023-05-09T11:15:08.344Z,19.21
2023-05-09T11:17:45.457Z,19.32
2023-05-09T11:20:17.111Z,19.28
2023-05-09T11:22:50.174Z,19.12
2023-05-09T11:25:34.589Z,19.02
2023-05-09T11:28:28.688Z,18.89
2023-05-09T11:31:22.977Z,18.75
2023-05-09T11:34:08.036Z,18.53
2023-05-09T11:36:52.662Z,18.45
2023-05-09T11:39:33.490Z,18.55
2023-05-09T11:42:13.424Z,18.54
2023-05-09T11:44:51.487Z,18.64
2023-05-09T11:47:31.181Z,18.66
2023-05-09T11:50:18.125Z,18.76
2023-05-09T11:52:56.747Z,18.96
2023-05-09T11:55:39.268Z,18.99
2023-05-09T11:58:17.740Z,19.07
2023-05-09T12:00:57.042Z,19.10
2023-05-09T12:03:35.641Z,18.77
2023-05-09T12:06:19.387Z,18.76
2023-05-09T12:08:59.691Z,18.47
2023-05-09T12:11:38.584Z,18.50
2023-05-09T12:14:29.171Z,18.39
2023-05-09T12:17:08.043Z,18.48
2023-05-09T12:19:46.300Z,18.49
2023-05-09T12:22:25.328Z,18.42
2023-05-09T12:25:05.533Z,18.52
2023-05-09T12:27:44.786Z,18.71
2023-05-09T12:30:23.563Z,18.88
2023-05-09T12:33:02.652Z,18.65
2023-05-09T12:35:43.021Z,18.55
2023-05-09T12:38:41.184Z,18.67
2023-05-09T12:41:30.977Z,18.82
2023-05-09T12:44:34.280Z,18.77
2023-05-09T12:47:08.071Z,18.73
2023-05-09T12:49:51.173Z,18.80
2023-05-09T12:52:36.807Z,19.01
2023-05-09T12:55:18.324Z,19.14
2023-05-09T12:58:09.466Z,19.10
2023-05-09T13:00:50.525Z,19.13
2023-05-09T13:03:41.568Z,19.08
2023-05-09T13:06:19.723Z,19.04
2023-05-09T13:09:07.180Z,18.98
2023-05-09T13:11:48.073Z,18.84
2023-05-09T13:14:28.538Z,18.93
2023-05-09T13:17:08.576Z,18.97
2023-05-09T13:19:47.279Z,19.02
2023-05-09T13:22:25.497Z,19.08
2023-05-09T13:25:03.905Z,19.09
2023-05-09T13:27:42.134Z,18.85
2023-05-09T13:30:21.202Z,18.80
2023-05-09T13:33:12.793Z,18.70
2023-05-09T13:36:01.596Z,18.85
2023-05-09T13:38:41.065Z,19.20
2023-05-09T13:41:25.991Z,19.41
2023-05-09T13:44:04.401Z,19.33
2023-05-09T13:46:43.641Z,19.19
2023-05-09T13:49:22.408Z,19.14
2023-05-09T13:52:00.734Z,19.10
2023-05-09T13:54:38.020Z,19.07
2023-05-09T13:57:10.345Z,19.00
2023-05-09T13:59:49.202Z,18.72
2023-05-09T14:02:25.134Z,18.52
2023-05-09T14:05:04.593Z,18.27
2023-05-09T14:07:43.489Z,18.31
2023-05-09T14:10:22.806Z,18.36
2023-05-09T14:13:01.575Z,18.48
2023-05-09T14:15:40.627Z,18.52
2023-05-09T14:18:20.945Z,18.62
2023-05-09T14:21:00.674Z,18.67
2023-05-09T14:23:40.583Z,18.76
2023-05-09T14:26:20.010Z,18.81
2023-05-09T14:28:59.509Z,18.87
2023-05-09T14:31:39.479Z,18.85
2023-05-09T14:34:18.771Z,18.74
2023-05-09T14:36:57.951Z,18.73
2023-05-09T14:39:36.094Z,18.85
2023-05-09T14:42:17.196Z,18.89
2023-05-09T14:44:49.251Z,18.93
2023-05-09T14:47:28.072Z,18.83
2023-05-09T14:50:07.814Z,18.74
2023-05-09T14:52:47.203Z,18.69
2023-05-09T14:55:31.540Z,18.76
2023-05-09T14:58:05.638Z,18.82
2023-05-09T15:00:42.476Z,18.71
2023-05-09T15:03:21.972Z,18.69
2023-05-09T15:06:02.264Z,18.45
2023-05-09T15:08:41.580Z,18.27
2023-05-09T15:11:23.983Z,18.10
2023-05-09T15:14:06.883Z,18.20
2023-05-09T15:16:44.624Z,18.32
2023-05-09T15:19:23.412Z,18.37
2023-05-09T15:22:08.905Z,18.35
2023-05-09T15:24:46.892Z,18.25
2023-05-09T15:27:25.788Z,18.06
2023-05-09T15:30:05.228Z,18.06
2023-05-09T15:32:51.903Z,18.11
2023-05-09T15:35:29.808Z,18.15
2023-05-09T15:38:14.455Z,18.16
2023-05-09T15:40:44.825Z,18.23
2023-05-09T15:43:15.797Z,18.21
2023-05-09T15:45:52.761Z,18.06
2023-05-09T15:48:29.191Z,18.07
2023-05-09T15:51:07.806Z,18.10
2023-05-09T15:53:39.639Z,18.09
2023-05-09T15:56:16.579Z,18.12
2023-05-09T15:58:53.709Z,18.05
2023-05-09T16:01:33.299Z,17.94
2023-05-09T16:04:14.381Z,17.88
2023-05-09T16:06:52.349Z,17.87
2023-05-09T16:09:29.938Z,17.89
2023-05-09T16:12:07.948Z,17.83
2023-05-09T16:14:38.404Z,17.85
2023-05-09T16:17:13.851Z,17.87
2023-05-09T16:19:51.804Z,17.81
2023-05-09T16:22:29.658Z,17.80
2023-05-09T16:25:08.499Z,17.90
2023-05-09T16:27:46.602Z,17.99
2023-05-09T16:30:23.529Z,17.98
2023-05-09T16:33:00.781Z,17.94
2023-05-09T16:35:36.333Z,17.84
2023-05-09T16:38:13.515Z,17.71
2023-05-09T16:40:51.421Z,17.66
2023-05-09T16:43:29.661Z,17.63
2023-05-09T16:46:09.004Z,17.57
2023-05-09T16:48:47.541Z,17.46
2023-05-09T16:51:25.527Z,17.36
2023-05-09T16:54:04.051Z,17.30
2023-05-09T16:56:35.816Z,17.10
2023-05-09T16:59:14.324Z,17.04
2023-05-09T17:01:54.213Z,16.99
2023-05-09T17:04:32.967Z,16.91
2023-05-09T17:07:13.277Z,16.83
2023-05-09T17:09:52.335Z,16.72
2023-05-09T17:12:30.815Z,16.66
2023-05-09T17:15:15.010Z,16.62
2023-05-09T17:17:53.415Z,16.58
2023-05-09T17:20:32.956Z,16.55
2023-05-09T17:23:12.528Z,16.50
2023-05-09T17:25:50.814Z,16.46
2023-05-09T17:28:29.921Z,16.39
2023-05-09T17:31:10.359Z,16.31
2023-05-09T17:33:49.472Z,16.24
2023-05-09T17:36:27.979Z,16.18
2023-05-09T17:39:08.750Z,16.11
2023-05-09T17:41:44.998Z,16.04
2023-05-09T17:44:18.991Z,15.97
2023-05-09T17:46:57.937Z,15.91
2023-05-09T17:49:35.374Z,15.87
2023-05-09T17:52:14.025Z,15.82
2023-05-09T17:54:51.919Z,15.77
2023-05-09T17:57:29.415Z,15.72
2023-05-09T18:00:11.641Z,15.66
2023-05-09T18:02:51.264Z,15.59
2023-05-09T18:05:29.569Z,15.52
2023-05-09T18:08:08.433Z,15.44
2023-05-09T18:10:46.883Z,15.33
2023-05-09T18:13:27.155Z,15.26
2023-05-09T18:16:02.172Z,15.26
2023-05-09T18:18:37.835Z,15.23
2023-05-09T18:21:12.156Z,15.12
2023-05-09T18:23:49.467Z,15.12
2023-05-09T18:26:27.892Z,15.06
2023-05-09T18:29:05.794Z,15.00
2023-05-09T18:31:43.639Z,14.93
2023-05-09T18:34:21.112Z,14.87
2023-05-09T18:37:00.170Z,14.82
2023-05-09T18:39:38.409Z,14.76
2023-05-09T18:42:16.530Z,14.69
2023-05-09T18:44:54.135Z,14.61
2023-05-09T18:47:29.652Z,14.54
2023-05-09T18:50:09.269Z,14.46
2023-05-09T18:52:48.183Z,14.39
2023-05-09T18:55:21.199Z,14.33
2023-05-09T18:58:02.888Z,14.27
2023-05-09T19:00:40.093Z,14.21
2023-05-09T19:03:18.061Z,14.10
2023-05-09T19:05:55.896Z,14.11
2023-05-09T19:08:33.044Z,14.08
2023-05-09T19:11:12.871Z,14.02
2023-05-09T19:13:53.136Z,13.98
2023-05-09T19:16:31.413Z,13.93
2023-05-09T19:19:10.729Z,13.88
2023-05-09T19:21:50.258Z,13.84
2023-05-09T19:24:28.994Z,13.80
2023-05-09T19:27:08.206Z,13.76
2023-05-09T19:29:40.824Z,13.72
2023-05-09T19:32:18.340Z,13.67
2023-05-09T19:34:56.305Z,13.64
2023-05-09T19:37:34.097Z,13.58
2023-05-09T19:40:12.588Z,13.54
2023-05-09T19:42:50.633Z,13.48
2023-05-09T19:45:29.452Z,13.44
2023-05-09T19:48:00.994Z,13.39
2023-05-09T19:50:38.829Z,13.33
2023-05-09T19:53:16.353Z,13.28
2023-05-09T19:55:56.911Z,13.22
2023-05-09T19:58:34.757Z,13.16
2023-05-09T20:01:13.532Z,13.08
2023-05-09T20:03:52.601Z,13.02
2023-05-09T20:06:30.486Z,12.93
2023-05-09T20:09:09.411Z,12.90
2023-05-09T20:11:46.645Z,12.85
2023-05-09T20:14:25.202Z,12.80
2023-05-09T20:17:02.853Z,12.75
2023-05-09T20:19:34.586Z,12.67
2023-05-09T20:22:12.581Z,12.62
2023-05-09T20:24:50.521Z,12.56
2023-05-09T20:27:22.584Z,12.50
2023-05-09T20:29:59.221Z,12.43
2023-05-09T20:32:36.904Z,12.38
2023-05-09T20:35:14.597Z,12.30
2023-05-09T20:37:52.263Z,12.23
2023-05-09T20:40:29.676Z,12.20
2023-05-09T20:43:07.099Z,12.17
2023-05-09T20:45:42.145Z,12.14
2023-05-09T20:48:25.149Z,12.13
2023-05-09T20:51:02.862Z,12.08
2023-05-09T20:53:40.038Z,11.99
2023-05-09T20:56:17.527Z,12.01
2023-05-09T20:58:54.879Z,11.98
2023-05-09T21:01:40.373Z,11.95
2023-05-09T21:04:18.292Z,11.94
2023-05-09T21:06:48.620Z,11.93
2023-05-09T21:09:23.480Z,11.90
2023-05-09T21:11:53.510Z,11.87
2023-05-09T21:14:30.947Z,11.82
2023-05-09T21:17:08.695Z,11.81
2023-05-09T21:19:46.037Z,11.76
2023-05-09T21:22:16.788Z,11.70
2023-05-09T21:24:49.299Z,11.67
2023-05-09T21:27:23.916Z,11.63
2023-05-09T21:29:59.205Z,11.58
2023-05-09T21:32:36.850Z,11.52
2023-05-09T21:35:15.610Z,11.48
2023-05-09T21:37:53.412Z,11.42
2023-05-09T21:40:30.710Z,11.36
2023-05-09T21:43:09.066Z,11.30
2023-05-09T21:45:46.070Z,11.22
2023-05-09T21:48:16.204Z,11.17
2023-05-09T21:50:54.069Z,11.11
2023-05-09T21:53:25.606Z,11.06
2023-05-09T21:56:02.965Z,11.01
2023-05-09T21:58:40.105Z,10.96
2023-05-09T22:01:20.492Z,10.91
2023-05-09T22:03:57.999Z,10.86
2023-05-09T22:06:36.253Z,10.82
2023-05-09T22:09:13.393Z,10.75
2023-05-09T22:11:50.556Z,10.76
2023-05-09T22:14:20.520Z,10.72
2023-05-09T22:16:59.795Z,10.68
2023-05-09T22:19:38.436Z,10.65
2023-05-09T22:22:17.221Z,10.61
2023-05-09T22:24:54.540Z,10.56
2023-05-09T22:27:26.002Z,10.53
2023-05-09T22:32:33.691Z,10.46
2023-05-09T22:35:13.271Z,10.37
2023-05-09T22:37:49.915Z,10.38
2023-05-09T22:40:27.099Z,10.33
2023-05-09T22:43:04.020Z,10.25
2023-05-09T22:45:40.764Z,10.26
2023-05-09T22:48:11.846Z,10.21
2023-05-09T22:50:42.846Z,10.18
2023-05-09T22:53:21.167Z,10.15
2023-05-09T22:55:59.039Z,10.12
2023-05-09T22:58:35.955Z,10.07
2023-05-09T23:01:13.182Z,10.02
2023-05-09T23:03:51.963Z,9.99
2023-05-09T23:06:30.409Z,9.97
2023-05-09T23:09:08.031Z,9.93
2023-05-09T23:11:44.854Z,9.84
2023-05-09T23:14:19.933Z,9.87
2023-05-09T23:16:51.107Z,9.85
2023-05-09T23:19:28.793Z,9.81
2023-05-09T23:22:06.222Z,9.75
2023-05-09T23:24:43.204Z,9.70
2023-05-09T23:27:20.533Z,9.55
2023-05-09T23:29:57.271Z,9.64
2023-05-09T23:32:34.127Z,9.60
2023-05-09T23:35:12.012Z,9.58
2023-05-09T23:37:48.107Z,9.54
2023-05-09T23:40:18.498Z,9.51
2023-05-09T23:42:51.719Z,9.48
2023-05-09T23:45:28.811Z,9.45
2023-05-09T23:48:05.707Z,9.43
2023-05-09T23:50:38.673Z,9.39
2023-05-09T23:53:15.492Z,9.36
2023-05-09T23:55:51.391Z,9.35
2023-05-09T23:58:27.772Z,9.32
